sensor_id;sensor_type;location;lat;lon;timestamp;temperature;humidity
463;DHT22;218;51.902;9.542;2023-07-28T00:02:06;22.90;1.00
463;DHT22;218;51.902;9.542;2023-07-28T00:04:34;22.90;1.00
463;DHT22;218;51.902;9.542;2023-07-28T00:07:01;22.90;1.00
463;DHT22;218;51.902;9.542;2023-07-28T00:11:57;22.90;1.00
463;DHT22;218;51.902;9.542;2023-07-28T00:14:24;22.90;1.00
463;DHT22;218;51.902;9.542;2023-07-28T00:16:51;22.90;1.00
463;DHT22;218;51.902;9.542;2023-07-28T00:19:18;22.90;1.00
463;DHT22;218;51.902;9.542;2023-07-28T00:21:46;22.90;1.00
463;DHT22;218;51.902;9.542;2023-07-28T00:24:13;22.90;1.00
463;DHT22;218;51.902;9.542;2023-07-28T00:26:40;22.90;1.00
463;DHT22;218;51.902;9.542;2023-07-28T00:34:03;22.90;1.00
463;DHT22;218;51.902;9.542;2023-07-28T00:36:32;22.80;1.00
463;DHT22;218;51.902;9.542;2023-07-28T00:38:59;22.90;1.00
463;DHT22;218;51.902;9.542;2023-07-28T00:41:26;22.90;1.00
463;DHT22;218;51.902;9.542;2023-07-28T00:43:53;22.90;1.00
463;DHT22;218;51.902;9.542;2023-07-28T00:46:21;22.90;1.00
463;DHT22;218;51.902;9.542;2023-07-28T00:48:48;22.80;1.00
463;DHT22;218;51.902;9.542;2023-07-28T00:51:15;22.80;1.00
463;DHT22;218;51.902;9.542;2023-07-28T00:53:43;22.90;1.00
463;DHT22;218;51.902;9.542;2023-07-28T00:56:10;22.80;1.00
463;DHT22;218;51.902;9.542;2023-07-28T00:58:37;22.80;1.00
463;DHT22;218;51.902;9.542;2023-07-28T01:01:04;22.90;1.00
463;DHT22;218;51.902;9.542;2023-07-28T01:03:33;22.80;1.00
463;DHT22;218;51.902;9.542;2023-07-28T01:06:10;22.80;1.00
463;DHT22;218;51.902;9.542;2023-07-28T01:08:42;22.80;1.00
463;DHT22;218;51.902;9.542;2023-07-28T01:11:13;22.90;1.00
463;DHT22;218;51.902;9.542;2023-07-28T01:13:40;22.80;1.00
463;DHT22;218;51.902;9.542;2023-07-28T01:16:07;22.80;1.00
463;DHT22;218;51.902;9.542;2023-07-28T01:18:36;22.80;1.00
463;DHT22;218;51.902;9.542;2023-07-28T01:23:40;22.80;1.00
463;DHT22;218;51.902;9.542;2023-07-28T01:26:10;22.80;1.00
463;DHT22;218;51.902;9.542;2023-07-28T01:28:39;22.80;1.00
463;DHT22;218;51.902;9.542;2023-07-28T01:33:35;22.30;1.00
463;DHT22;218;51.902;9.542;2023-07-28T01:36:03;22.80;1.00
463;DHT22;218;51.902;9.542;2023-07-28T01:38:30;22.80;1.00
463;DHT22;218;51.902;9.542;2023-07-28T01:40:57;22.80;1.00
463;DHT22;218;51.902;9.542;2023-07-28T01:45:52;22.90;1.00
463;DHT22;218;51.902;9.542;2023-07-28T01:48:19;22.80;1.00
463;DHT22;218;51.902;9.542;2023-07-28T01:50:46;22.80;1.00
463;DHT22;218;51.902;9.542;2023-07-28T01:53:13;22.80;1.00
463;DHT22;218;51.902;9.542;2023-07-28T01:55:40;22.80;1.00
463;DHT22;218;51.902;9.542;2023-07-28T01:58:07;22.80;1.00
463;DHT22;218;51.902;9.542;2023-07-28T02:03:03;22.80;1.00
463;DHT22;218;51.902;9.542;2023-07-28T02:05:31;22.80;1.00
463;DHT22;218;51.902;9.542;2023-07-28T02:07:58;22.80;1.00
463;DHT22;218;51.902;9.542;2023-07-28T02:12:53;22.80;1.00
463;DHT22;218;51.902;9.542;2023-07-28T02:15:20;22.80;1.00
463;DHT22;218;51.902;9.542;2023-07-28T02:17:47;22.80;1.00
463;DHT22;218;51.902;9.542;2023-07-28T02:22:43;22.80;1.00
463;DHT22;218;51.902;9.542;2023-07-28T02:25:10;22.80;1.00
463;DHT22;218;51.902;9.542;2023-07-28T02:27:37;22.70;1.00
463;DHT22;218;51.902;9.542;2023-07-28T02:30:05;22.80;1.00
463;DHT22;218;51.902;9.542;2023-07-28T02:32:33;22.80;1.00
463;DHT22;218;51.902;9.542;2023-07-28T02:35:00;22.80;1.00
463;DHT22;218;51.902;9.542;2023-07-28T02:37:28;22.80;1.00
463;DHT22;218;51.902;9.542;2023-07-28T02:39:55;22.70;1.00
463;DHT22;218;51.902;9.542;2023-07-28T02:44:50;22.80;1.00
463;DHT22;218;51.902;9.542;2023-07-28T02:47:17;22.70;1.00
463;DHT22;218;51.902;9.542;2023-07-28T02:49:44;22.70;1.00
463;DHT22;218;51.902;9.542;2023-07-28T02:52:11;22.70;1.00
463;DHT22;218;51.902;9.542;2023-07-28T02:54:40;22.70;1.00
463;DHT22;218;51.902;9.542;2023-07-28T02:57:07;22.70;1.00
463;DHT22;218;51.902;9.542;2023-07-28T02:59:34;22.70;1.00
463;DHT22;218;51.902;9.542;2023-07-28T03:02:01;22.70;1.00
463;DHT22;218;51.902;9.542;2023-07-28T03:04:28;22.70;1.00
463;DHT22;218;51.902;9.542;2023-07-28T03:06:55;22.70;1.00
463;DHT22;218;51.902;9.542;2023-07-28T03:11:51;22.70;1.00
463;DHT22;218;51.902;9.542;2023-07-28T03:16:45;22.70;1.00
463;DHT22;218;51.902;9.542;2023-07-28T03:19:12;22.70;1.00
463;DHT22;218;51.902;9.542;2023-07-28T03:21:39;22.70;1.00
463;DHT22;218;51.902;9.542;2023-07-28T03:24:06;22.70;1.00
463;DHT22;218;51.902;9.542;2023-07-28T03:29:01;22.70;1.00
463;DHT22;218;51.902;9.542;2023-07-28T03:33:55;22.70;1.00
463;DHT22;218;51.902;9.542;2023-07-28T03:36:23;22.70;1.00
463;DHT22;218;51.902;9.542;2023-07-28T03:38:49;22.70;1.00
463;DHT22;218;51.902;9.542;2023-07-28T03:43:44;22.70;1.00
463;DHT22;218;51.902;9.542;2023-07-28T03:46:12;22.70;1.00
463;DHT22;218;51.902;9.542;2023-07-28T03:48:39;22.70;1.00
463;DHT22;218;51.902;9.542;2023-07-28T03:51:06;22.70;1.00
463;DHT22;218;51.902;9.542;2023-07-28T03:53:33;22.70;1.00
463;DHT22;218;51.902;9.542;2023-07-28T03:56:01;22.70;1.00
463;DHT22;218;51.902;9.542;2023-07-28T03:58:28;22.70;1.00
463;DHT22;218;51.902;9.542;2023-07-28T04:03:24;22.70;1.00
463;DHT22;218;51.902;9.542;2023-07-28T04:05:51;22.70;1.00
463;DHT22;218;51.902;9.542;2023-07-28T04:08:18;22.70;1.00
463;DHT22;218;51.902;9.542;2023-07-28T04:10:44;22.70;1.00
463;DHT22;218;51.902;9.542;2023-07-28T04:13:12;22.70;1.00
463;DHT22;218;51.902;9.542;2023-07-28T04:15:38;22.70;1.00
463;DHT22;218;51.902;9.542;2023-07-28T04:20:34;22.70;1.00
463;DHT22;218;51.902;9.542;2023-07-28T04:23:01;22.70;1.00
463;DHT22;218;51.902;9.542;2023-07-28T04:25:28;22.70;1.00
463;DHT22;218;51.902;9.542;2023-07-28T04:27:55;22.70;1.00
463;DHT22;218;51.902;9.542;2023-07-28T04:30:22;22.70;1.00
463;DHT22;218;51.902;9.542;2023-07-28T04:32:49;22.70;1.00
463;DHT22;218;51.902;9.542;2023-07-28T04:35:16;22.70;1.00
463;DHT22;218;51.902;9.542;2023-07-28T04:37:45;22.70;1.00
463;DHT22;218;51.902;9.542;2023-07-28T04:40:12;22.70;1.00
463;DHT22;218;51.902;9.542;2023-07-28T04:42:39;22.70;1.00
463;DHT22;218;51.902;9.542;2023-07-28T04:45:07;22.70;1.00
463;DHT22;218;51.902;9.542;2023-07-28T04:47:34;22.70;1.00
463;DHT22;218;51.902;9.542;2023-07-28T04:50:01;22.70;1.00
463;DHT22;218;51.902;9.542;2023-07-28T04:52:28;22.70;1.00
463;DHT22;218;51.902;9.542;2023-07-28T04:54:56;22.70;1.00
463;DHT22;218;51.902;9.542;2023-07-28T04:57:23;22.70;1.00
463;DHT22;218;51.902;9.542;2023-07-28T04:59:50;22.70;1.00
463;DHT22;218;51.902;9.542;2023-07-28T05:02:18;22.70;1.00
463;DHT22;218;51.902;9.542;2023-07-28T05:04:44;22.70;1.00
463;DHT22;218;51.902;9.542;2023-07-28T05:09:39;22.70;1.00
463;DHT22;218;51.902;9.542;2023-07-28T05:14:35;22.80;1.00
463;DHT22;218;51.902;9.542;2023-07-28T05:19:29;22.80;1.00
463;DHT22;218;51.902;9.542;2023-07-28T05:21:56;22.80;1.00
463;DHT22;218;51.902;9.542;2023-07-28T05:24:23;22.80;1.00
463;DHT22;218;51.902;9.542;2023-07-28T05:26:50;22.80;1.00
463;DHT22;218;51.902;9.542;2023-07-28T05:29:18;22.80;1.00
463;DHT22;218;51.902;9.542;2023-07-28T05:31:46;22.80;1.00
463;DHT22;218;51.902;9.542;2023-07-28T05:34:12;22.80;1.00
463;DHT22;218;51.902;9.542;2023-07-28T05:39:07;22.90;1.00
463;DHT22;218;51.902;9.542;2023-07-28T05:41:34;22.90;1.00
463;DHT22;218;51.902;9.542;2023-07-28T05:44:01;22.90;1.00
463;DHT22;218;51.902;9.542;2023-07-28T05:48:58;22.90;1.00
463;DHT22;218;51.902;9.542;2023-07-28T05:51:25;22.90;1.00
463;DHT22;218;51.902;9.542;2023-07-28T05:53:52;22.90;1.00
463;DHT22;218;51.902;9.542;2023-07-28T05:56:19;23.00;1.00
463;DHT22;218;51.902;9.542;2023-07-28T05:58:46;22.90;1.00
463;DHT22;218;51.902;9.542;2023-07-28T06:01:13;23.00;1.00
463;DHT22;218;51.902;9.542;2023-07-28T06:03:41;23.00;1.00
463;DHT22;218;51.902;9.542;2023-07-28T06:06:08;23.00;1.00
463;DHT22;218;51.902;9.542;2023-07-28T06:08:35;23.00;1.00
463;DHT22;218;51.902;9.542;2023-07-28T06:13:31;23.10;1.00
463;DHT22;218;51.902;9.542;2023-07-28T06:15:58;23.10;1.00
463;DHT22;218;51.902;9.542;2023-07-28T06:18:25;23.10;1.00
463;DHT22;218;51.902;9.542;2023-07-28T06:20:54;23.10;1.00
463;DHT22;218;51.902;9.542;2023-07-28T06:23:21;23.20;1.00
463;DHT22;218;51.902;9.542;2023-07-28T06:25:48;23.20;1.00
463;DHT22;218;51.902;9.542;2023-07-28T06:28:15;23.20;1.00
463;DHT22;218;51.902;9.542;2023-07-28T06:30:42;23.20;1.00
463;DHT22;218;51.902;9.542;2023-07-28T06:33:09;23.20;1.00
463;DHT22;218;51.902;9.542;2023-07-28T06:35:36;23.30;1.00
463;DHT22;218;51.902;9.542;2023-07-28T06:38:05;23.20;1.00
463;DHT22;218;51.902;9.542;2023-07-28T06:40:32;23.20;1.00
463;DHT22;218;51.902;9.542;2023-07-28T06:42:58;23.30;1.00
463;DHT22;218;51.902;9.542;2023-07-28T06:45:25;23.30;1.00
463;DHT22;218;51.902;9.542;2023-07-28T06:47:52;23.30;1.00
463;DHT22;218;51.902;9.542;2023-07-28T06:50:19;23.30;1.00
463;DHT22;218;51.902;9.542;2023-07-28T06:52:46;23.30;1.00
463;DHT22;218;51.902;9.542;2023-07-28T06:55:17;23.30;1.00
463;DHT22;218;51.902;9.542;2023-07-28T06:57:44;23.30;1.00
463;DHT22;218;51.902;9.542;2023-07-28T07:00:12;23.30;1.00
463;DHT22;218;51.902;9.542;2023-07-28T07:02:39;23.30;1.00
463;DHT22;218;51.902;9.542;2023-07-28T07:05:06;23.40;1.00
463;DHT22;218;51.902;9.542;2023-07-28T07:07:33;23.40;1.00
463;DHT22;218;51.902;9.542;2023-07-28T07:10:03;23.40;1.00
463;DHT22;218;51.902;9.542;2023-07-28T07:17:27;23.40;1.00
463;DHT22;218;51.902;9.542;2023-07-28T07:19:54;23.50;1.00
463;DHT22;218;51.902;9.542;2023-07-28T07:22:21;23.50;1.00
463;DHT22;218;51.902;9.542;2023-07-28T07:24:49;23.50;1.00
463;DHT22;218;51.902;9.542;2023-07-28T07:27:16;23.50;1.00
463;DHT22;218;51.902;9.542;2023-07-28T07:29:44;23.60;1.00
463;DHT22;218;51.902;9.542;2023-07-28T07:32:11;23.60;1.00
463;DHT22;218;51.902;9.542;2023-07-28T07:34:38;23.60;1.00
463;DHT22;218;51.902;9.542;2023-07-28T07:37:05;23.60;1.00
463;DHT22;218;51.902;9.542;2023-07-28T07:39:32;23.60;1.00
463;DHT22;218;51.902;9.542;2023-07-28T07:41:59;23.60;1.00
463;DHT22;218;51.902;9.542;2023-07-28T07:44:27;23.60;1.00
463;DHT22;218;51.902;9.542;2023-07-28T07:46:55;23.60;1.00
463;DHT22;218;51.902;9.542;2023-07-28T07:49:23;23.60;1.00
463;DHT22;218;51.902;9.542;2023-07-28T07:51:50;23.60;1.00
463;DHT22;218;51.902;9.542;2023-07-28T07:54:17;23.60;1.00
463;DHT22;218;51.902;9.542;2023-07-28T07:56:44;23.60;1.00
463;DHT22;218;51.902;9.542;2023-07-28T07:59:12;23.60;1.00
463;DHT22;218;51.902;9.542;2023-07-28T08:01:39;23.70;1.00
463;DHT22;218;51.902;9.542;2023-07-28T08:04:08;23.60;1.00
463;DHT22;218;51.902;9.542;2023-07-28T08:06:36;23.60;1.00
463;DHT22;218;51.902;9.542;2023-07-28T08:09:03;23.60;1.00
463;DHT22;218;51.902;9.542;2023-07-28T08:11:30;23.70;1.00
463;DHT22;218;51.902;9.542;2023-07-28T08:13:57;23.60;1.00
463;DHT22;218;51.902;9.542;2023-07-28T08:16:24;23.70;1.00
463;DHT22;218;51.902;9.542;2023-07-28T08:18:51;23.60;1.00
463;DHT22;218;51.902;9.542;2023-07-28T08:21:19;23.70;1.00
463;DHT22;218;51.902;9.542;2023-07-28T08:23:48;23.70;1.00
463;DHT22;218;51.902;9.542;2023-07-28T08:26:15;23.60;1.00
463;DHT22;218;51.902;9.542;2023-07-28T08:28:42;23.70;1.00
463;DHT22;218;51.902;9.542;2023-07-28T08:31:08;23.70;1.00
463;DHT22;218;51.902;9.542;2023-07-28T08:33:35;23.70;1.00
463;DHT22;218;51.902;9.542;2023-07-28T08:36:03;23.70;1.00
463;DHT22;218;51.902;9.542;2023-07-28T08:38:31;23.70;1.00
463;DHT22;218;51.902;9.542;2023-07-28T08:40:58;23.70;1.00
463;DHT22;218;51.902;9.542;2023-07-28T08:43:25;23.70;1.00
463;DHT22;218;51.902;9.542;2023-07-28T08:45:54;23.70;1.00
463;DHT22;218;51.902;9.542;2023-07-28T08:48:21;23.70;1.00
463;DHT22;218;51.902;9.542;2023-07-28T08:50:48;23.80;1.00
463;DHT22;218;51.902;9.542;2023-07-28T08:53:16;23.80;1.00
463;DHT22;218;51.902;9.542;2023-07-28T08:55:44;23.70;1.00
463;DHT22;218;51.902;9.542;2023-07-28T08:58:16;23.70;1.00
463;DHT22;218;51.902;9.542;2023-07-28T09:00:44;23.80;1.00
463;DHT22;218;51.902;9.542;2023-07-28T09:03:14;23.80;1.00
463;DHT22;218;51.902;9.542;2023-07-28T09:05:42;23.80;1.00
463;DHT22;218;51.902;9.542;2023-07-28T09:08:10;23.80;1.00
463;DHT22;218;51.902;9.542;2023-07-28T09:10:45;23.80;1.00
463;DHT22;218;51.902;9.542;2023-07-28T09:13:15;23.80;1.00
463;DHT22;218;51.902;9.542;2023-07-28T09:15:42;23.90;1.00
463;DHT22;218;51.902;9.542;2023-07-28T09:18:10;23.90;1.00
463;DHT22;218;51.902;9.542;2023-07-28T09:20:39;23.90;1.00
463;DHT22;218;51.902;9.542;2023-07-28T09:23:06;23.90;1.00
463;DHT22;218;51.902;9.542;2023-07-28T09:25:34;24.00;1.00
463;DHT22;218;51.902;9.542;2023-07-28T09:28:04;24.00;1.00
463;DHT22;218;51.902;9.542;2023-07-28T09:30:45;24.10;1.00
463;DHT22;218;51.902;9.542;2023-07-28T09:33:12;24.20;1.00
463;DHT22;218;51.902;9.542;2023-07-28T09:35:48;24.20;1.00
463;DHT22;218;51.902;9.542;2023-07-28T09:38:15;24.30;1.00
463;DHT22;218;51.902;9.542;2023-07-28T09:40:43;24.40;1.00
463;DHT22;218;51.902;9.542;2023-07-28T09:43:12;24.50;1.00
463;DHT22;218;51.902;9.542;2023-07-28T09:45:40;24.50;1.00
463;DHT22;218;51.902;9.542;2023-07-28T09:48:10;24.60;1.00
463;DHT22;218;51.902;9.542;2023-07-28T09:50:40;24.70;1.00
463;DHT22;218;51.902;9.542;2023-07-28T09:53:09;24.90;1.00
463;DHT22;218;51.902;9.542;2023-07-28T09:55:39;24.90;1.00
463;DHT22;218;51.902;9.542;2023-07-28T09:58:09;25.10;1.00
463;DHT22;218;51.902;9.542;2023-07-28T10:00:39;25.20;1.00
463;DHT22;218;51.902;9.542;2023-07-28T10:03:07;25.30;1.00
463;DHT22;218;51.902;9.542;2023-07-28T10:05:34;25.30;1.00
463;DHT22;218;51.902;9.542;2023-07-28T10:08:02;25.40;1.00
463;DHT22;218;51.902;9.542;2023-07-28T10:10:30;25.40;1.00
463;DHT22;218;51.902;9.542;2023-07-28T10:12:58;25.50;1.00
463;DHT22;218;51.902;9.542;2023-07-28T10:15:28;25.50;1.00
463;DHT22;218;51.902;9.542;2023-07-28T10:17:58;25.50;1.00
463;DHT22;218;51.902;9.542;2023-07-28T10:20:34;25.60;1.00
463;DHT22;218;51.902;9.542;2023-07-28T10:23:11;25.60;1.00
463;DHT22;218;51.902;9.542;2023-07-28T10:25:39;25.60;1.00
463;DHT22;218;51.902;9.542;2023-07-28T10:28:08;25.60;1.00
463;DHT22;218;51.902;9.542;2023-07-28T10:30:53;25.70;1.00
463;DHT22;218;51.902;9.542;2023-07-28T10:33:29;25.80;1.00
463;DHT22;218;51.902;9.542;2023-07-28T10:35:57;25.90;1.00
463;DHT22;218;51.902;9.542;2023-07-28T10:38:29;26.00;1.00
463;DHT22;218;51.902;9.542;2023-07-28T10:41:08;26.10;1.00
463;DHT22;218;51.902;9.542;2023-07-28T10:43:36;26.30;1.00
463;DHT22;218;51.902;9.542;2023-07-28T10:46:05;26.30;1.00
463;DHT22;218;51.902;9.542;2023-07-28T10:48:36;26.40;1.00
463;DHT22;218;51.902;9.542;2023-07-28T10:51:05;26.50;1.00
463;DHT22;218;51.902;9.542;2023-07-28T10:53:32;26.50;1.00
463;DHT22;218;51.902;9.542;2023-07-28T10:56:01;26.60;1.00
463;DHT22;218;51.902;9.542;2023-07-28T10:58:28;26.60;1.00
463;DHT22;218;51.902;9.542;2023-07-28T11:00:55;26.70;1.00
463;DHT22;218;51.902;9.542;2023-07-28T11:03:22;26.70;1.00
463;DHT22;218;51.902;9.542;2023-07-28T11:05:51;26.70;1.00
463;DHT22;218;51.902;9.542;2023-07-28T11:08:18;26.70;1.00
463;DHT22;218;51.902;9.542;2023-07-28T11:10:45;26.80;1.00
463;DHT22;218;51.902;9.542;2023-07-28T11:13:13;26.80;1.00
463;DHT22;218;51.902;9.542;2023-07-28T11:15:44;26.80;1.00
463;DHT22;218;51.902;9.542;2023-07-28T11:18:11;26.80;1.00
463;DHT22;218;51.902;9.542;2023-07-28T11:20:41;26.80;1.00
463;DHT22;218;51.902;9.542;2023-07-28T11:23:10;26.80;1.00
463;DHT22;218;51.902;9.542;2023-07-28T11:25:41;26.90;1.00
463;DHT22;218;51.902;9.542;2023-07-28T11:28:09;26.90;1.00
463;DHT22;218;51.902;9.542;2023-07-28T11:30:37;26.90;1.00
463;DHT22;218;51.902;9.542;2023-07-28T11:33:09;26.90;1.00
463;DHT22;218;51.902;9.542;2023-07-28T11:35:37;26.90;1.00
463;DHT22;218;51.902;9.542;2023-07-28T11:38:05;27.00;1.00
463;DHT22;218;51.902;9.542;2023-07-28T11:40:35;27.00;1.00
463;DHT22;218;51.902;9.542;2023-07-28T11:43:03;27.10;1.00
463;DHT22;218;51.902;9.542;2023-07-28T11:45:30;27.10;1.00
463;DHT22;218;51.902;9.542;2023-07-28T11:47:59;27.10;1.00
463;DHT22;218;51.902;9.542;2023-07-28T11:50:27;27.20;1.00
463;DHT22;218;51.902;9.542;2023-07-28T11:52:56;27.20;1.00
463;DHT22;218;51.902;9.542;2023-07-28T11:55:24;27.20;1.00
463;DHT22;218;51.902;9.542;2023-07-28T11:57:53;27.30;1.00
463;DHT22;218;51.902;9.542;2023-07-28T12:00:28;27.30;1.00
463;DHT22;218;51.902;9.542;2023-07-28T12:03:03;27.30;1.00
463;DHT22;218;51.902;9.542;2023-07-28T12:05:31;27.30;1.00
463;DHT22;218;51.902;9.542;2023-07-28T12:07:59;27.40;1.00
463;DHT22;218;51.902;9.542;2023-07-28T12:10:26;27.40;1.00
463;DHT22;218;51.902;9.542;2023-07-28T12:12:54;27.50;1.00
463;DHT22;218;51.902;9.542;2023-07-28T12:15:23;27.60;1.00
463;DHT22;218;51.902;9.542;2023-07-28T12:18:12;27.60;1.00
463;DHT22;218;51.902;9.542;2023-07-28T12:20:40;27.70;1.00
463;DHT22;218;51.902;9.542;2023-07-28T12:23:12;27.80;1.00
463;DHT22;218;51.902;9.542;2023-07-28T12:25:39;27.90;1.00
463;DHT22;218;51.902;9.542;2023-07-28T12:28:08;28.00;1.00
463;DHT22;218;51.902;9.542;2023-07-28T12:30:35;28.20;1.00
463;DHT22;218;51.902;9.542;2023-07-28T12:33:02;28.30;1.00
463;DHT22;218;51.902;9.542;2023-07-28T12:35:30;28.40;1.00
463;DHT22;218;51.902;9.542;2023-07-28T12:38:00;28.50;1.00
463;DHT22;218;51.902;9.542;2023-07-28T12:40:28;28.60;1.00
463;DHT22;218;51.902;9.542;2023-07-28T12:42:55;28.70;1.00
463;DHT22;218;51.902;9.542;2023-07-28T12:45:23;28.70;1.00
463;DHT22;218;51.902;9.542;2023-07-28T12:47:51;28.80;1.00
463;DHT22;218;51.902;9.542;2023-07-28T12:50:19;28.80;1.00
463;DHT22;218;51.902;9.542;2023-07-28T12:52:47;28.90;1.00
463;DHT22;218;51.902;9.542;2023-07-28T12:55:14;28.90;1.00
463;DHT22;218;51.902;9.542;2023-07-28T12:57:42;28.90;1.00
463;DHT22;218;51.902;9.542;2023-07-28T13:00:10;29.00;1.00
463;DHT22;218;51.902;9.542;2023-07-28T13:02:41;29.10;1.00
463;DHT22;218;51.902;9.542;2023-07-28T13:05:09;29.20;1.00
463;DHT22;218;51.902;9.542;2023-07-28T13:07:37;29.30;1.00
463;DHT22;218;51.902;9.542;2023-07-28T13:10:08;29.40;1.00
463;DHT22;218;51.902;9.542;2023-07-28T13:12:35;29.50;1.00
463;DHT22;218;51.902;9.542;2023-07-28T13:15:03;29.60;1.00
463;DHT22;218;51.902;9.542;2023-07-28T13:17:32;29.70;1.00
463;DHT22;218;51.902;9.542;2023-07-28T13:20:00;29.90;1.00
463;DHT22;218;51.902;9.542;2023-07-28T13:22:27;30.00;1.00
463;DHT22;218;51.902;9.542;2023-07-28T13:24:54;30.10;1.00
463;DHT22;218;51.902;9.542;2023-07-28T13:27:21;30.20;1.00
463;DHT22;218;51.902;9.542;2023-07-28T13:29:48;30.30;1.00
463;DHT22;218;51.902;9.542;2023-07-28T13:32:17;30.40;1.00
463;DHT22;218;51.902;9.542;2023-07-28T13:34:44;30.50;1.00
463;DHT22;218;51.902;9.542;2023-07-28T13:37:13;30.50;1.00
463;DHT22;218;51.902;9.542;2023-07-28T13:39:40;30.60;1.00
463;DHT22;218;51.902;9.542;2023-07-28T13:42:08;30.70;1.00
463;DHT22;218;51.902;9.542;2023-07-28T13:44:35;30.80;1.00
463;DHT22;218;51.902;9.542;2023-07-28T13:47:01;30.90;1.00
463;DHT22;218;51.902;9.542;2023-07-28T13:49:29;30.90;1.00
463;DHT22;218;51.902;9.542;2023-07-28T13:51:56;30.90;1.00
463;DHT22;218;51.902;9.542;2023-07-28T13:54:25;31.00;1.00
463;DHT22;218;51.902;9.542;2023-07-28T13:56:51;31.10;1.00
463;DHT22;218;51.902;9.542;2023-07-28T13:59:19;31.10;1.00
463;DHT22;218;51.902;9.542;2023-07-28T14:01:46;31.10;1.00
463;DHT22;218;51.902;9.542;2023-07-28T14:04:12;31.20;1.00
463;DHT22;218;51.902;9.542;2023-07-28T14:06:40;31.20;1.00
463;DHT22;218;51.902;9.542;2023-07-28T14:09:06;31.30;1.00
463;DHT22;218;51.902;9.542;2023-07-28T14:11:36;31.30;1.00
463;DHT22;218;51.902;9.542;2023-07-28T14:14:03;31.30;1.00
463;DHT22;218;51.902;9.542;2023-07-28T14:16:30;31.30;1.00
463;DHT22;218;51.902;9.542;2023-07-28T14:18:57;31.30;1.00
463;DHT22;218;51.902;9.542;2023-07-28T14:21:24;31.30;1.00
463;DHT22;218;51.902;9.542;2023-07-28T14:23:51;31.30;1.00
463;DHT22;218;51.902;9.542;2023-07-28T14:26:17;31.30;1.00
463;DHT22;218;51.902;9.542;2023-07-28T14:28:46;31.30;1.00
463;DHT22;218;51.902;9.542;2023-07-28T14:31:13;31.20;1.00
463;DHT22;218;51.902;9.542;2023-07-28T14:33:40;31.20;1.00
463;DHT22;218;51.902;9.542;2023-07-28T14:36:06;31.20;1.00
463;DHT22;218;51.902;9.542;2023-07-28T14:38:33;31.20;1.00
463;DHT22;218;51.902;9.542;2023-07-28T14:41:00;31.20;1.00
463;DHT22;218;51.902;9.542;2023-07-28T14:43:27;31.20;1.00
463;DHT22;218;51.902;9.542;2023-07-28T14:45:56;31.20;1.00
463;DHT22;218;51.902;9.542;2023-07-28T14:48:25;31.20;1.00
463;DHT22;218;51.902;9.542;2023-07-28T14:50:52;31.20;1.00
463;DHT22;218;51.902;9.542;2023-07-28T14:53:31;31.20;1.00
463;DHT22;218;51.902;9.542;2023-07-28T14:55:58;31.20;1.00
463;DHT22;218;51.902;9.542;2023-07-28T14:58:27;31.20;1.00
463;DHT22;218;51.902;9.542;2023-07-28T15:00:59;31.20;1.00
463;DHT22;218;51.902;9.542;2023-07-28T15:03:28;31.20;1.00
463;DHT22;218;51.902;9.542;2023-07-28T15:05:56;31.20;1.00
463;DHT22;218;51.902;9.542;2023-07-28T15:08:23;31.20;1.00
463;DHT22;218;51.902;9.542;2023-07-28T15:10:50;31.10;1.00
463;DHT22;218;51.902;9.542;2023-07-28T15:13:17;31.10;1.00
463;DHT22;218;51.902;9.542;2023-07-28T15:15:44;31.10;1.00
463;DHT22;218;51.902;9.542;2023-07-28T15:18:13;31.10;1.00
463;DHT22;218;51.902;9.542;2023-07-28T15:20:40;31.10;1.00
463;DHT22;218;51.902;9.542;2023-07-28T15:23:08;31.00;1.00
463;DHT22;218;51.902;9.542;2023-07-28T15:25:35;31.00;1.00
463;DHT22;218;51.902;9.542;2023-07-28T15:28:03;31.00;1.00
463;DHT22;218;51.902;9.542;2023-07-28T15:30:30;31.10;1.00
463;DHT22;218;51.902;9.542;2023-07-28T15:32:57;31.00;1.00
463;DHT22;218;51.902;9.542;2023-07-28T15:35:25;31.00;1.00
463;DHT22;218;51.902;9.542;2023-07-28T15:37:52;31.00;1.00
463;DHT22;218;51.902;9.542;2023-07-28T15:40:19;30.90;1.00
463;DHT22;218;51.902;9.542;2023-07-28T15:42:46;31.00;1.00
463;DHT22;218;51.902;9.542;2023-07-28T15:45:13;31.00;1.00
463;DHT22;218;51.902;9.542;2023-07-28T15:47:40;31.00;1.00
463;DHT22;218;51.902;9.542;2023-07-28T15:50:08;31.00;1.00
463;DHT22;218;51.902;9.542;2023-07-28T15:52:36;31.00;1.00
463;DHT22;218;51.902;9.542;2023-07-28T15:55:04;31.00;1.00
463;DHT22;218;51.902;9.542;2023-07-28T15:57:31;31.00;1.00
463;DHT22;218;51.902;9.542;2023-07-28T15:59:58;31.00;1.00
463;DHT22;218;51.902;9.542;2023-07-28T16:02:26;31.00;1.00
463;DHT22;218;51.902;9.542;2023-07-28T16:04:52;31.00;1.00
463;DHT22;218;51.902;9.542;2023-07-28T16:07:19;31.10;1.00
463;DHT22;218;51.902;9.542;2023-07-28T16:09:49;31.10;1.00
463;DHT22;218;51.902;9.542;2023-07-28T16:12:16;31.10;1.00
463;DHT22;218;51.902;9.542;2023-07-28T16:14:43;31.00;1.00
463;DHT22;218;51.902;9.542;2023-07-28T16:17:10;31.10;1.00
463;DHT22;218;51.902;9.542;2023-07-28T16:19:37;31.00;1.00
463;DHT22;218;51.902;9.542;2023-07-28T16:22:04;31.00;1.00
463;DHT22;218;51.902;9.542;2023-07-28T16:24:31;31.00;1.00
463;DHT22;218;51.902;9.542;2023-07-28T16:26:59;31.00;1.00
463;DHT22;218;51.902;9.542;2023-07-28T16:29:26;30.90;1.00
463;DHT22;218;51.902;9.542;2023-07-28T16:31:53;30.90;1.00
463;DHT22;218;51.902;9.542;2023-07-28T16:34:22;30.90;1.00
463;DHT22;218;51.902;9.542;2023-07-28T16:36:49;30.90;1.00
463;DHT22;218;51.902;9.542;2023-07-28T16:39:16;30.90;1.00
463;DHT22;218;51.902;9.542;2023-07-28T16:41:42;30.90;1.00
463;DHT22;218;51.902;9.542;2023-07-28T16:44:11;30.90;1.00
463;DHT22;218;51.902;9.542;2023-07-28T16:46:38;30.90;1.00
463;DHT22;218;51.902;9.542;2023-07-28T16:49:05;30.80;1.00
463;DHT22;218;51.902;9.542;2023-07-28T16:51:32;30.80;1.00
463;DHT22;218;51.902;9.542;2023-07-28T16:54:00;30.80;1.00
463;DHT22;218;51.902;9.542;2023-07-28T16:56:26;30.80;1.00
463;DHT22;218;51.902;9.542;2023-07-28T16:58:53;30.80;1.00
463;DHT22;218;51.902;9.542;2023-07-28T17:01:22;30.80;1.00
463;DHT22;218;51.902;9.542;2023-07-28T17:03:49;30.70;1.00
463;DHT22;218;51.902;9.542;2023-07-28T17:06:15;30.70;1.00
463;DHT22;218;51.902;9.542;2023-07-28T17:08:42;30.60;1.00
463;DHT22;218;51.902;9.542;2023-07-28T17:11:09;30.60;1.00
463;DHT22;218;51.902;9.542;2023-07-28T17:13:36;30.60;1.00
463;DHT22;218;51.902;9.542;2023-07-28T17:16:03;30.60;1.00
463;DHT22;218;51.902;9.542;2023-07-28T17:18:32;30.60;1.00
463;DHT22;218;51.902;9.542;2023-07-28T17:20:59;30.50;1.00
463;DHT22;218;51.902;9.542;2023-07-28T17:23:25;30.50;1.00
463;DHT22;218;51.902;9.542;2023-07-28T17:25:52;30.50;1.00
463;DHT22;218;51.902;9.542;2023-07-28T17:28:19;30.50;1.00
463;DHT22;218;51.902;9.542;2023-07-28T17:30:46;30.50;1.00
463;DHT22;218;51.902;9.542;2023-07-28T17:33:13;30.40;1.00
463;DHT22;218;51.902;9.542;2023-07-28T17:35:42;30.40;1.00
463;DHT22;218;51.902;9.542;2023-07-28T17:38:09;30.40;1.00
463;DHT22;218;51.902;9.542;2023-07-28T17:40:36;30.40;1.00
463;DHT22;218;51.902;9.542;2023-07-28T17:43:03;30.40;1.00
463;DHT22;218;51.902;9.542;2023-07-28T17:45:31;30.30;1.00
463;DHT22;218;51.902;9.542;2023-07-28T17:47:58;30.30;1.00
463;DHT22;218;51.902;9.542;2023-07-28T17:50:25;30.30;1.00
463;DHT22;218;51.902;9.542;2023-07-28T17:52:53;30.30;1.00
463;DHT22;218;51.902;9.542;2023-07-28T17:55:20;30.20;1.00
463;DHT22;218;51.902;9.542;2023-07-28T17:57:47;30.20;1.00